Time;durP1;ratioP1;P1;durP2;ratioP2;P2;SDS_P1;SDS_P2;PMS_P1;PMS_P2;Temp;Humidity;BMP_temperature;BMP_pressure;BME280_temperature;BME280_humidity;BME280_pressure;Samples;Min_cycle;Max_cycle;Signal;HPM_P1;HPM_P2
2021/12/01 00:01:19;;;;;;;6.53;3.65;;;;;;;;;;6230360;28;20046;-71
2021/12/01 00:04:21;;;;;;;7.00;3.25;;;;;;;;;;6233588;28;20053;-73
2021/12/01 00:07:22;;;;;;;7.43;3.38;;;;;;;;;;6228574;28;20148;-72
2021/12/01 00:10:25;;;;;;;6.28;3.58;;;;;;;;;;6240133;28;20100;-72
2021/12/01 00:13:28;;;;;;;5.53;3.25;;;;;;;;;;6242985;28;20116;-72
2021/12/01 00:16:31;;;;;;;6.00;3.85;;;;;;;;;;6229571;28;20713;-74
2021/12/01 00:19:33;;;;;;;6.60;3.63;;;;;;;;;;6247366;28;20196;-72
2021/12/01 00:22:35;;;;;;;5.43;3.33;;;;;;;;;;6227878;28;20057;-71
2021/12/01 00:25:39;;;;;;;8.25;3.83;;;;;;;;;;6235573;28;20591;-72
2021/12/01 00:28:40;;;;;;;;;;;;;;;;;;6240657;28;20050;-71
2021/12/01 00:31:43;;;;;;;9.70;4.10;;;;;;;;;;6228895;28;20384;-71
2021/12/01 00:34:45;;;;;;;7.72;3.70;;;;;;;;;;6235539;28;20072;-71
2021/12/01 00:37:46;;;;;;;6.82;3.90;;;;;;;;;;6230508;28;20554;-72
2021/12/01 00:40:47;;;;;;;6.55;3.88;;;;;;;;;;6235293;28;20137;-72
2021/12/01 00:43:49;;;;;;;8.93;4.13;;;;;;;;;;6234857;28;20053;-73
2021/12/01 00:46:56;;;;;;;7.38;3.92;;;;;;;;;;6222650;28;20864;-73
2021/12/01 00:49:58;;;;;;;6.85;4.30;;;;;;;;;;6239119;28;20130;-73
2021/12/01 00:53:00;;;;;;;8.82;4.15;;;;;;;;;;6237739;28;20052;-74
2021/12/01 00:56:01;;;;;;;7.13;4.22;;;;;;;;;;6232518;28;20128;-73
2021/12/01 00:59:03;;;;;;;11.23;4.18;;;;;;;;;;6243325;28;20057;-73
2021/12/01 01:02:07;;;;;;;9.38;4.22;;;;;;;;;;6229060;28;20111;-74
2021/12/01 01:05:08;;;;;;;;;;;;;;;;;;6234351;28;20045;-75
2021/12/01 01:08:10;;;;;;;8.10;4.38;;;;;;;;;;6233226;28;20071;-71
2021/12/01 01:18:02;;;;;;;6.72;4.07;;;;;;;;;;6224220;28;20120;-72
2021/12/01 01:21:04;;;;;;;6.20;3.58;;;;;;;;;;6229439;28;20061;-72
2021/12/01 01:24:06;;;;;;;7.53;4.07;;;;;;;;;;6238510;28;20080;-72
2021/12/01 01:27:07;;;;;;;8.88;4.38;;;;;;;;;;6237865;28;20064;-72
2021/12/01 01:30:09;;;;;;;7.28;4.03;;;;;;;;;;6230670;28;20494;-74
2021/12/01 01:33:12;;;;;;;6.65;4.07;;;;;;;;;;6235228;28;20094;-72
2021/12/01 01:36:13;;;;;;;9.07;4.00;;;;;;;;;;6209578;28;20053;-73
2021/12/01 01:39:15;;;;;;;8.00;4.18;;;;;;;;;;6232329;28;20069;-73
2021/12/01 01:42:17;;;;;;;6.90;3.58;;;;;;;;;;6230774;28;20144;-73
2021/12/01 01:45:18;;;;;;;7.32;3.50;;;;;;;;;;6231729;28;20046;-75
2021/12/01 01:48:29;;;;;;;6.80;3.90;;;;;;;;;;6236761;28;20483;-73
2021/12/01 01:51:30;;;;;;;7.78;3.85;;;;;;;;;;6225123;28;20188;-72
2021/12/01 01:54:31;;;;;;;7.03;3.80;;;;;;;;;;6243302;28;20156;-74
2021/12/01 01:57:33;;;;;;;6.93;3.35;;;;;;;;;;6227330;28;20586;-72
2021/12/01 02:00:44;;;;;;;6.07;3.83;;;;;;;;;;6232275;28;20048;-72
2021/12/01 02:03:47;;;;;;;5.97;3.72;;;;;;;;;;6239837;28;20060;-73
2021/12/01 02:06:49;;;;;;;7.85;3.53;;;;;;;;;;6235736;28;20072;-73
2021/12/01 02:09:50;;;;;;;5.22;3.30;;;;;;;;;;6251776;28;20393;-72
2021/12/01 02:12:51;;;;;;;8.65;4.05;;;;;;;;;;6235463;28;20083;-72
2021/12/01 02:15:53;;;;;;;8.00;3.42;;;;;;;;;;6236849;28;20369;-72
2021/12/01 02:18:56;;;;;;;5.63;3.28;;;;;;;;;;6234034;28;20428;-73
2021/12/01 02:21:59;;;;;;;5.95;3.33;;;;;;;;;;6239336;28;20148;-72
2021/12/01 02:25:00;;;;;;;6.30;3.47;;;;;;;;;;6243618;28;20132;-73
2021/12/01 02:28:07;;;;;;;9.07;4.05;;;;;;;;;;6236278;28;20038;-73
2021/12/01 02:31:08;;;;;;;7.93;4.10;;;;;;;;;;6231606;28;20132;-73
2021/12/01 02:34:11;;;;;;;5.85;3.40;;;;;;;;;;6244901;28;20141;-74
2021/12/01 02:37:15;;;;;;;6.23;3.93;;;;;;;;;;6238268;28;20042;-73
2021/12/01 02:40:16;;;;;;;5.97;3.60;;;;;;;;;;6235662;28;20513;-73
2021/12/01 02:43:18;;;;;;;6.15;3.70;;;;;;;;;;6233322;28;20073;-72
2021/12/01 02:46:19;;;;;;;9.38;3.60;;;;;;;;;;6194352;28;20100;-73
2021/12/01 02:49:21;;;;;;;6.85;3.35;;;;;;;;;;6206155;28;20045;-73
2021/12/01 02:52:24;;;;;;;8.40;3.50;;;;;;;;;;6192234;28;20047;-74
2021/12/01 02:55:28;;;;;;;7.53;3.72;;;;;;;;;;6208068;28;21250;-72
2021/12/01 02:58:31;;;;;;;8.77;3.53;;;;;;;;;;6227902;28;20390;-72
2021/12/01 03:01:33;;;;;;;8.63;3.85;;;;;;;;;;6199987;28;20050;-72
2021/12/01 03:04:35;;;;;;;7.57;3.38;;;;;;;;;;6214455;28;20176;-72
2021/12/01 03:07:38;;;;;;;4.82;2.47;;;;;;;;;;6202580;28;20556;-72
2021/12/01 03:10:39;;;;;;;6.35;2.90;;;;;;;;;;6202024;28;20058;-74
2021/12/01 03:13:41;;;;;;;7.72;2.78;;;;;;;;;;6220743;28;20045;-71
2021/12/01 03:16:43;;;;;;;7.57;2.83;;;;;;;;;;6198904;28;20042;-73
2021/12/01 03:19:44;;;;;;;4.53;2.50;;;;;;;;;;6209996;28;20050;-72
2021/12/01 03:22:47;;;;;;;4.75;2.50;;;;;;;;;;6194020;28;20178;-75
2021/12/01 03:25:49;;;;;;;4.47;2.15;;;;;;;;;;6208417;28;20046;-74
2021/12/01 03:28:51;;;;;;;3.63;2.25;;;;;;;;;;6214870;28;20099;-73
2021/12/01 03:31:52;;;;;;;4.20;2.40;;;;;;;;;;6193440;28;20038;-74
2021/12/01 03:34:54;;;;;;;4.95;2.25;;;;;;;;;;6206223;28;20174;-74
2021/12/01 03:37:56;;;;;;;3.90;2.20;;;;;;;;;;6206072;28;20050;-74
2021/12/01 03:40:58;;;;;;;3.15;2.03;;;;;;;;;;6204289;28;20770;-75
2021/12/01 03:44:00;;;;;;;6.47;2.45;;;;;;;;;;6214128;28;20188;-73
2021/12/01 03:47:01;;;;;;;3.15;2.20;;;;;;;;;;6192674;28;20174;-73
2021/12/01 03:50:03;;;;;;;3.00;1.98;;;;;;;;;;6210418;28;20125;-73
2021/12/01 03:53:05;;;;;;;3.67;2.40;;;;;;;;;;6203838;28;20090;-72
2021/12/01 03:56:07;;;;;;;5.00;2.22;;;;;;;;;;6210268;28;20075;-74
2021/12/01 03:59:08;;;;;;;4.50;1.95;;;;;;;;;;6216361;28;20433;-74
2021/12/01 04:02:10;;;;;;;4.97;2.38;;;;;;;;;;6204637;28;20049;-73
2021/12/01 04:05:11;;;;;;;3.90;1.70;;;;;;;;;;6215982;28;20525;-75
2021/12/01 04:08:14;;;;;;;4.22;1.90;;;;;;;;;;6209531;28;20046;-74
2021/12/01 04:11:16;;;;;;;5.60;2.38;;;;;;;;;;6209210;28;20041;-73
2021/12/01 04:14:17;;;;;;;5.80;2.45;;;;;;;;;;6226881;28;20077;-74
2021/12/01 04:17:18;;;;;;;7.07;2.47;;;;;;;;;;6217056;28;20058;-74
2021/12/01 04:20:20;;;;;;;5.28;2.22;;;;;;;;;;6219413;28;20126;-74
2021/12/01 04:23:23;;;;;;;3.90;2.15;;;;;;;;;;6230507;28;20140;-74
2021/12/01 04:26:27;;;;;;;3.10;2.10;;;;;;;;;;6224656;28;20048;-74
2021/12/01 04:29:28;;;;;;;3.90;2.35;;;;;;;;;;6242143;28;20465;-74
2021/12/01 04:32:29;;;;;;;5.22;2.10;;;;;;;;;;6215003;28;20053;-73
2021/12/01 04:35:31;;;;;;;3.75;2.33;;;;;;;;;;6216403;28;20759;-75
2021/12/01 04:38:34;;;;;;;3.60;1.90;;;;;;;;;;6229724;28;20080;-73
2021/12/01 04:41:39;;;;;;;4.00;2.15;;;;;;;;;;6220620;28;20707;-72
2021/12/01 04:44:41;;;;;;;4.95;2.10;;;;;;;;;;6231692;28;20041;-74
2021/12/01 04:47:43;;;;;;;3.47;1.90;;;;;;;;;;6222425;28;20073;-73
2021/12/01 04:50:44;;;;;;;5.82;2.47;;;;;;;;;;6216569;28;20179;-73
2021/12/01 04:53:47;;;;;;;2.53;2.00;;;;;;;;;;6217820;28;20052;-73
2021/12/01 04:56:50;;;;;;;6.65;2.25;;;;;;;;;;6210844;28;20046;-73
2021/12/01 04:59:51;;;;;;;4.22;2.13;;;;;;;;;;6218165;28;20049;-73
2021/12/01 05:02:53;;;;;;;4.28;2.08;;;;;;;;;;6199073;28;20583;-73
2021/12/01 05:05:54;;;;;;;5.15;1.90;;;;;;;;;;6215367;28;20049;-72
2021/12/01 05:08:57;;;;;;;7.53;2.30;;;;;;;;;;6227585;28;20076;-73
2021/12/01 05:11:59;;;;;;;4.03;2.67;;;;;;;;;;6199325;28;20050;-72
2021/12/01 05:15:00;;;;;;;4.65;2.33;;;;;;;;;;6213397;28;20046;-73
2021/12/01 05:18:02;;;;;;;5.45;2.35;;;;;;;;;;6193564;28;20042;-73
2021/12/01 05:21:03;;;;;;;4.70;2.10;;;;;;;;;;6202462;28;20058;-75
2021/12/01 05:24:06;;;;;;;4.68;2.58;;;;;;;;;;6218323;28;20136;-73
2021/12/01 05:27:08;;;;;;;4.22;2.20;;;;;;;;;;6204956;28;20113;-74
2021/12/01 05:30:10;;;;;;;6.68;2.35;;;;;;;;;;6217471;28;20128;-75
2021/12/01 05:33:11;;;;;;;4.90;2.35;;;;;;;;;;6212821;28;20140;-74
2021/12/01 05:36:13;;;;;;;5.82;2.33;;;;;;;;;;6197945;28;20159;-73
2021/12/01 05:39:16;;;;;;;5.63;2.40;;;;;;;;;;6222530;28;20062;-74
2021/12/01 05:42:18;;;;;;;5.00;2.58;;;;;;;;;;6204809;28;20050;-74
2021/12/01 05:45:19;;;;;;;4.90;2.03;;;;;;;;;;6208421;28;20098;-74
2021/12/01 05:48:21;;;;;;;3.75;2.28;;;;;;;;;;6210423;28;20104;-73
2021/12/01 05:51:22;;;;;;;5.25;2.50;;;;;;;;;;6206444;28;20046;-74
2021/12/01 05:54:25;;;;;;;8.15;2.63;;;;;;;;;;6210043;28;20449;-77
2021/12/01 05:57:26;;;;;;;4.10;2.17;;;;;;;;;;6203296;28;20046;-73
2021/12/01 06:00:28;;;;;;;3.58;2.05;;;;;;;;;;6195272;28;21006;-73
2021/12/01 06:03:30;;;;;;;5.38;2.47;;;;;;;;;;6214902;28;20052;-72
2021/12/01 06:06:31;;;;;;;6.90;2.75;;;;;;;;;;6209009;28;20042;-73
2021/12/01 06:09:34;;;;;;;3.35;2.00;;;;;;;;;;6212568;28;20041;-71
2021/12/01 06:12:36;;;;;;;5.95;2.72;;;;;;;;;;6203108;28;20045;-73
2021/12/01 06:15:38;;;;;;;7.40;2.28;;;;;;;;;;6200656;28;20057;-72
2021/12/01 06:18:39;;;;;;;3.72;2.20;;;;;;;;;;6211961;28;20151;-73
2021/12/01 06:21:40;;;;;;;3.83;2.20;;;;;;;;;;6206828;28;20172;-72
2021/12/01 06:24:43;;;;;;;4.88;2.88;;;;;;;;;;6209764;28;20042;-73
2021/12/01 06:27:45;;;;;;;6.22;2.58;;;;;;;;;;6203212;28;20180;-71
2021/12/01 06:30:46;;;;;;;9.45;2.55;;;;;;;;;;6207416;28;20054;-73
2021/12/01 06:33:48;;;;;;;4.93;2.45;;;;;;;;;;6214956;28;20056;-73
2021/12/01 06:36:49;;;;;;;6.05;2.70;;;;;;;;;;6208467;28;20132;-73
2021/12/01 06:39:52;;;;;;;4.25;2.25;;;;;;;;;;6214697;28;20505;-73
2021/12/01 06:42:53;;;;;;;4.53;2.13;;;;;;;;;;6210533;28;20042;-72
2021/12/01 06:45:55;;;;;;;5.03;2.42;;;;;;;;;;6204188;28;20052;-72
2021/12/01 06:48:56;;;;;;;4.55;2.17;;;;;;;;;;6211870;28;20056;-73
2021/12/01 06:51:58;;;;;;;5.95;2.47;;;;;;;;;;6205084;28;20119;-75
2021/12/01 06:55:01;;;;;;;4.35;2.30;;;;;;;;;;6212056;28;20054;-73
2021/12/01 06:58:03;;;;;;;6.40;2.40;;;;;;;;;;6199050;28;20148;-72
2021/12/01 07:01:06;;;;;;;4.45;2.40;;;;;;;;;;6209146;28;20062;-73
2021/12/01 07:04:08;;;;;;;4.65;2.15;;;;;;;;;;6214341;28;20565;-72
2021/12/01 07:07:11;;;;;;;5.68;2.53;;;;;;;;;;6207513;28;20409;-72
2021/12/01 07:10:14;;;;;;;5.93;2.53;;;;;;;;;;6210096;28;20132;-74
2021/12/01 07:13:16;;;;;;;5.63;2.50;;;;;;;;;;6212926;28;20136;-72
2021/12/01 07:16:17;;;;;;;7.53;3.00;;;;;;;;;;6199797;28;20069;-73
2021/12/01 07:19:19;;;;;;;7.57;2.70;;;;;;;;;;6208091;28;20600;-72
2021/12/01 07:22:20;;;;;;;4.03;2.35;;;;;;;;;;6206116;28;20203;-72
2021/12/01 07:25:23;;;;;;;5.75;2.63;;;;;;;;;;6202315;28;20422;-68
2021/12/01 07:28:24;;;;;;;6.85;3.20;;;;;;;;;;6209586;28;20195;-66
2021/12/01 07:31:26;;;;;;;9.10;3.67;;;;;;;;;;6195458;28;20038;-67
2021/12/01 07:34:27;;;;;;;11.25;3.35;;;;;;;;;;6208319;28;20139;-67
2021/12/01 07:37:28;;;;;;;14.68;4.28;;;;;;;;;;6201901;28;20223;-66
2021/12/01 07:40:31;;;;;;;12.00;4.65;;;;;;;;;;6200449;28;20156;-67
2021/12/01 07:43:33;;;;;;;12.82;4.00;;;;;;;;;;6208998;28;20503;-65
2021/12/01 07:46:34;;;;;;;13.30;5.25;;;;;;;;;;6192609;28;20054;-65
2021/12/01 07:49:36;;;;;;;9.13;4.85;;;;;;;;;;6207781;28;20441;-67
2021/12/01 07:52:38;;;;;;;13.23;5.43;;;;;;;;;;6200468;28;20161;-67
2021/12/01 07:55:41;;;;;;;11.85;6.60;;;;;;;;;;6205525;28;20050;-67
2021/12/01 07:58:43;;;;;;;11.80;6.00;;;;;;;;;;6213139;28;20128;-66
2021/12/01 08:01:44;;;;;;;9.57;5.32;;;;;;;;;;6193037;28;20508;-66
2021/12/01 08:04:46;;;;;;;11.95;6.32;;;;;;;;;;6183998;28;20132;-67
2021/12/01 08:07:49;;;;;;;13.07;6.47;;;;;;;;;;6202776;28;20183;-66
2021/12/01 08:10:52;;;;;;;10.10;5.95;;;;;;;;;;6202511;28;20785;-67
2021/12/01 08:13:54;;;;;;;11.32;6.25;;;;;;;;;;6210082;28;20189;-67
2021/12/01 08:16:55;;;;;;;11.82;6.88;;;;;;;;;;6192042;28;20049;-65
2021/12/01 08:19:58;;;;;;;12.38;6.40;;;;;;;;;;6220720;28;20102;-86
2021/12/01 08:22:59;;;;;;;11.23;6.40;;;;;;;;;;6234811;28;20054;-76
2021/12/01 08:26:02;;;;;;;14.88;6.90;;;;;;;;;;6237315;28;20049;-74
2021/12/01 08:29:03;;;;;;;11.35;6.10;;;;;;;;;;6243748;28;20697;-75
2021/12/01 08:32:05;;;;;;;12.25;5.75;;;;;;;;;;6228432;28;20046;-75
2021/12/01 08:35:08;;;;;;;12.95;5.53;;;;;;;;;;6230445;28;20128;-86
2021/12/01 08:38:09;;;;;;;8.73;5.20;;;;;;;;;;6225721;28;20065;-75
2021/12/01 08:41:12;;;;;;;10.50;5.80;;;;;;;;;;6235179;28;20140;-75
2021/12/01 08:44:14;;;;;;;9.23;5.93;;;;;;;;;;6247837;28;20057;-74
2021/12/01 08:47:16;;;;;;;11.55;6.00;;;;;;;;;;6228669;28;20053;-73
2021/12/01 08:50:18;;;;;;;13.25;5.63;;;;;;;;;;6215305;28;20042;-75
2021/12/01 08:53:19;;;;;;;9.27;5.63;;;;;;;;;;6223215;28;20600;-75
2021/12/01 08:56:22;;;;;;;9.10;5.35;;;;;;;;;;6216745;28;20400;-75
2021/12/01 08:59:25;;;;;;;8.85;4.90;;;;;;;;;;6237383;28;20067;-76
2021/12/01 09:02:26;;;;;;;7.65;4.78;;;;;;;;;;6226990;28;20489;-76
2021/12/01 09:05:29;;;;;;;8.93;4.82;;;;;;;;;;6228627;28;20271;-76
2021/12/01 09:08:31;;;;;;;8.03;5.27;;;;;;;;;;6242323;28;20445;-77
2021/12/01 09:11:34;;;;;;;8.80;5.00;;;;;;;;;;6238447;28;20098;-76
2021/12/01 09:14:35;;;;;;;7.57;4.85;;;;;;;;;;6231900;28;20612;-74
2021/12/01 09:17:36;;;;;;;8.57;5.38;;;;;;;;;;6222156;28;20071;-75
2021/12/01 09:20:38;;;;;;;11.32;5.20;;;;;;;;;;6232895;28;20057;-74
2021/12/01 09:23:39;;;;;;;7.25;4.88;;;;;;;;;;6217291;28;20128;-76
2021/12/01 09:26:43;;;;;;;6.88;4.65;;;;;;;;;;6211637;28;20045;-74
2021/12/01 09:29:44;;;;;;;6.35;4.50;;;;;;;;;;6228052;28;20079;-75
2021/12/01 09:32:46;;;;;;;7.47;4.97;;;;;;;;;;6214994;28;20050;-77
2021/12/01 09:35:47;;;;;;;9.60;4.57;;;;;;;;;;6216746;28;20050;-72
2021/12/01 09:38:49;;;;;;;9.10;5.25;;;;;;;;;;6223600;28;20560;-74
2021/12/01 09:41:54;;;;;;;7.82;4.70;;;;;;;;;;6208849;28;20128;-73
2021/12/01 09:44:56;;;;;;;6.20;4.53;;;;;;;;;;6215554;28;20069;-74
2021/12/01 09:47:57;;;;;;;8.00;4.38;;;;;;;;;;6208216;28;20115;-72
2021/12/01 09:50:59;;;;;;;5.70;4.13;;;;;;;;;;6212224;28;20053;-72
2021/12/01 09:54:02;;;;;;;8.02;4.43;;;;;;;;;;6223510;28;21923;-73
2021/12/01 09:57:05;;;;;;;10.60;4.90;;;;;;;;;;6212806;28;20049;-77
2021/12/01 10:00:07;;;;;;;7.88;5.15;;;;;;;;;;6221276;28;20103;-79
2021/12/01 10:03:09;;;;;;;8.00;5.82;;;;;;;;;;6215992;28;20133;-75
2021/12/01 10:06:13;;;;;;;9.68;5.32;;;;;;;;;;6210526;28;20192;-74
2021/12/01 10:09:15;;;;;;;;;;;;;;;;;;6221475;28;20125;-73
2021/12/01 10:12:18;;;;;;;11.05;5.78;;;;;;;;;;6205806;28;19922;-73
2021/12/01 10:15:28;;;;;;;12.43;6.93;;;;;;;;;;6210471;28;20141;-73
2021/12/01 10:18:34;;;;;;;11.70;7.65;;;;;;;;;;6217640;28;20497;-73
2021/12/01 10:21:37;;;;;;;11.38;7.88;;;;;;;;;;6216259;28;20056;-73
2021/12/01 10:24:45;;;;;;;12.68;7.65;;;;;;;;;;6212924;28;20046;-73
2021/12/01 10:27:48;;;;;;;14.27;8.25;;;;;;;;;;6224210;28;20072;-74
2021/12/01 10:30:49;;;;;;;10.75;7.38;;;;;;;;;;6205688;28;20038;-74
2021/12/01 10:33:51;;;;;;;14.65;8.23;;;;;;;;;;6209784;28;20140;-75
2021/12/01 10:37:07;;;;;;;13.13;7.32;;;;;;;;;;6231942;28;20123;-75
2021/12/01 10:40:10;;;;;;;9.73;7.55;;;;;;;;;;6216491;28;20046;-81
2021/12/01 10:43:15;;;;;;;14.85;7.63;;;;;;;;;;6219474;28;20077;-76
2021/12/01 10:46:17;;;;;;;13.63;7.82;;;;;;;;;;6205673;28;20425;-76
2021/12/01 10:49:32;;;;;;;9.57;6.95;;;;;;;;;;6224150;28;20406;-75
2021/12/01 10:52:34;;;;;;;10.18;6.68;;;;;;;;;;6206832;28;20508;-76
2021/12/01 10:55:42;;;;;;;11.98;7.07;;;;;;;;;;6211371;28;20109;-77
2021/12/01 10:58:45;;;;;;;12.20;7.28;;;;;;;;;;6215430;28;20085;-77
2021/12/01 11:01:46;;;;;;;11.57;7.57;;;;;;;;;;6203041;28;20137;-75
2021/12/01 11:04:49;;;;;;;12.88;7.38;;;;;;;;;;6206226;28;20050;-76
2021/12/01 11:07:51;;;;;;;12.77;7.65;;;;;;;;;;6200218;28;20246;-75
2021/12/01 11:10:53;;;;;;;15.65;7.70;;;;;;;;;;6209000;28;20045;-75
2021/12/01 11:14:07;;;;;;;11.25;7.78;;;;;;;;;;6219817;28;20137;-76
2021/12/01 11:17:14;;;;;;;10.32;7.05;;;;;;;;;;6204819;28;20046;-76
2021/12/01 11:20:30;;;;;;;13.13;7.03;;;;;;;;;;6219112;28;20041;-82
2021/12/01 11:23:33;;;;;;;11.50;6.85;;;;;;;;;;6213037;28;20136;-82
2021/12/01 11:26:35;;;;;;;10.27;7.18;;;;;;;;;;6207276;28;20046;-75
2021/12/01 11:29:39;;;;;;;10.88;6.95;;;;;;;;;;6221270;28;20049;-75
2021/12/01 11:32:41;;;;;;;10.60;6.90;;;;;;;;;;6205407;28;20100;-76
2021/12/01 11:35:45;;;;;;;10.82;7.18;;;;;;;;;;6202444;28;20123;-75
2021/12/01 11:38:49;;;;;;;10.75;7.15;;;;;;;;;;6216554;28;20128;-75
2021/12/01 11:41:51;;;;;;;12.05;6.70;;;;;;;;;;6212939;28;20486;-76
2021/12/01 11:44:55;;;;;;;8.27;6.78;;;;;;;;;;6219541;28;20184;-75
2021/12/01 11:47:57;;;;;;;10.45;7.50;;;;;;;;;;6208922;28;20104;-74
2021/12/01 11:51:06;;;;;;;12.05;6.93;;;;;;;;;;6208672;28;20141;-74
2021/12/01 11:54:10;;;;;;;10.30;7.30;;;;;;;;;;6199594;28;20487;-76
2021/12/01 11:57:12;;;;;;;11.82;7.18;;;;;;;;;;6214954;28;20050;-75
2021/12/01 12:00:17;;;;;;;9.30;6.88;;;;;;;;;;6211239;28;20700;-76
2021/12/01 12:03:25;;;;;;;9.38;6.07;;;;;;;;;;6214826;28;20129;-82
2021/12/01 12:06:27;;;;;;;12.52;6.75;;;;;;;;;;6197610;28;20473;-74
2021/12/01 12:09:30;;;;;;;12.15;6.47;;;;;;;;;;6218806;28;20097;-74
2021/12/01 12:12:43;;;;;;;10.57;6.22;;;;;;;;;;6240888;28;20419;-75
2021/12/01 12:15:47;;;;;;;11.05;5.82;;;;;;;;;;6206186;28;20046;-76
2021/12/01 12:18:52;;;;;;;9.32;5.85;;;;;;;;;;6248721;28;20041;-76
2021/12/01 12:22:00;;;;;;;11.30;5.88;;;;;;;;;;6239452;28;20127;-74
2021/12/01 12:25:02;;;;;;;9.25;5.60;;;;;;;;;;6243063;28;20120;-76
2021/12/01 12:28:19;;;;;;;11.68;5.97;;;;;;;;;;6239034;28;20068;-77
2021/12/01 12:31:29;;;;;;;10.27;6.05;;;;;;;;;;6234965;28;20521;-76
2021/12/01 12:34:31;;;;;;;15.88;6.78;;;;;;;;;;6238341;28;20049;-75
2021/12/01 12:37:33;;;;;;;11.05;5.57;;;;;;;;;;6225304;28;20127;-73
2021/12/01 12:40:35;;;;;;;10.35;5.88;;;;;;;;;;6235938;28;20730;-74
2021/12/01 12:43:38;;;;;;;10.43;6.05;;;;;;;;;;6247340;28;20473;-76
2021/12/01 12:46:41;;;;;;;9.32;6.32;;;;;;;;;;6231579;28;20187;-76
2021/12/01 12:49:43;;;;;;;11.80;6.00;;;;;;;;;;6241613;28;20038;-76
2021/12/01 12:52:45;;;;;;;15.38;6.97;;;;;;;;;;6232607;28;20445;-74
2021/12/01 12:55:48;;;;;;;11.88;6.03;;;;;;;;;;6234706;28;20030;-76
2021/12/01 12:58:52;;;;;;;9.43;6.20;;;;;;;;;;6246581;28;20048;-75
2021/12/01 13:01:55;;;;;;;12.02;6.00;;;;;;;;;;6229270;28;20481;-77
2021/12/01 13:05:02;;;;;;;11.43;6.53;;;;;;;;;;6241648;28;20560;-79
2021/12/01 13:08:04;;;;;;;14.15;6.15;;;;;;;;;;6246102;28;20060;-77
2021/12/01 13:11:07;;;;;;;14.55;6.30;;;;;;;;;;6242994;28;20147;-75
2021/12/01 13:14:09;;;;;;;11.68;6.22;;;;;;;;;;6252610;28;20180;-75
2021/12/01 13:17:11;;;;;;;10.60;6.57;;;;;;;;;;6241903;28;20644;-75
2021/12/01 13:20:13;;;;;;;12.70;6.97;;;;;;;;;;6233832;28;20050;-76
2021/12/01 13:23:16;;;;;;;12.52;6.28;;;;;;;;;;6243750;28;20167;-76
2021/12/01 13:26:19;;;;;;;10.10;6.63;;;;;;;;;;6227082;28;20468;-75
2021/12/01 13:29:20;;;;;;;11.55;6.28;;;;;;;;;;6243922;28;20400;-75
2021/12/01 13:32:23;;;;;;;11.45;6.43;;;;;;;;;;6230509;28;20095;-75
2021/12/01 13:35:28;;;;;;;10.15;6.57;;;;;;;;;;6239050;28;20048;-74
2021/12/01 13:38:31;;;;;;;13.10;6.68;;;;;;;;;;6246069;28;20037;-75
2021/12/01 13:41:34;;;;;;;15.38;7.63;;;;;;;;;;6248403;28;20259;-75
2021/12/01 13:44:37;;;;;;;11.63;6.90;;;;;;;;;;6244141;28;20148;-74
2021/12/01 13:47:41;;;;;;;11.95;6.63;;;;;;;;;;6240372;28;20042;-74
2021/12/01 13:50:43;;;;;;;10.45;6.78;;;;;;;;;;6236257;28;20372;-76
2021/12/01 13:53:44;;;;;;;9.88;6.35;;;;;;;;;;6240526;28;20484;-75
2021/12/01 13:56:57;;;;;;;14.15;7.68;;;;;;;;;;6232048;28;20127;-75
2021/12/01 14:00:00;;;;;;;10.75;6.78;;;;;;;;;;6249381;28;20131;-75
2021/12/01 14:03:04;;;;;;;14.45;6.80;;;;;;;;;;6238039;28;20053;-75
2021/12/01 14:06:07;;;;;;;11.82;6.90;;;;;;;;;;6237877;28;20515;-77
2021/12/01 14:09:12;;;;;;;11.80;7.28;;;;;;;;;;6243125;28;20123;-76
2021/12/01 14:12:20;;;;;;;14.50;7.20;;;;;;;;;;6231274;28;20084;-75
2021/12/01 14:15:25;;;;;;;12.00;7.30;;;;;;;;;;6233494;28;20464;-80
2021/12/01 14:18:29;;;;;;;11.80;7.22;;;;;;;;;;6238933;28;20571;-77
2021/12/01 14:21:31;;;;;;;10.13;6.73;;;;;;;;;;6240572;28;20096;-76
2021/12/01 14:24:34;;;;;;;10.73;6.78;;;;;;;;;;6241551;28;20060;-74
2021/12/01 14:27:37;;;;;;;10.93;6.18;;;;;;;;;;6215586;28;20351;-77
2021/12/01 14:30:39;;;;;;;9.25;6.10;;;;;;;;;;6229766;28;20124;-74
2021/12/01 14:34:00;;;;;;;10.85;6.43;;;;;;;;;;6239507;28;20086;-75
2021/12/01 14:37:02;;;;;;;11.88;7.32;;;;;;;;;;6232321;28;20115;-75
2021/12/01 14:40:04;;;;;;;23.67;9.40;;;;;;;;;;6238024;28;20191;-76
2021/12/01 14:43:06;;;;;;;9.85;7.00;;;;;;;;;;6232138;28;20106;-75
2021/12/01 14:46:11;;;;;;;11.73;6.85;;;;;;;;;;6226475;28;20536;-75
2021/12/01 14:49:15;;;;;;;10.48;7.00;;;;;;;;;;6236171;28;20049;-75
2021/12/01 14:52:20;;;;;;;10.90;6.90;;;;;;;;;;6224887;28;20427;-76
2021/12/01 14:55:24;;;;;;;11.82;7.05;;;;;;;;;;6237391;28;20509;-76
2021/12/01 14:58:26;;;;;;;11.30;6.95;;;;;;;;;;6242871;28;20050;-71
2021/12/01 15:01:27;;;;;;;9.02;6.95;;;;;;;;;;6226184;28;20107;-75
2021/12/01 15:04:30;;;;;;;12.63;7.05;;;;;;;;;;6232940;28;20156;-75
2021/12/01 15:07:31;;;;;;;10.02;6.95;;;;;;;;;;6228150;28;20112;-75
2021/12/01 15:10:35;;;;;;;10.50;6.30;;;;;;;;;;6227251;28;20468;-74
2021/12/01 15:13:38;;;;;;;11.73;6.97;;;;;;;;;;6233736;28;20052;-74
2021/12/01 15:16:39;;;;;;;13.48;7.75;;;;;;;;;;6215884;28;20569;-75
2021/12/01 15:19:42;;;;;;;10.40;6.50;;;;;;;;;;6230368;28;20106;-76
2021/12/01 15:22:57;;;;;;;13.60;6.90;;;;;;;;;;6227015;28;20068;-76
2021/12/01 15:25:59;;;;;;;11.65;7.25;;;;;;;;;;6200268;28;20054;-74
2021/12/01 15:29:02;;;;;;;13.68;6.93;;;;;;;;;;6212664;28;20850;-74
2021/12/01 15:32:04;;;;;;;13.97;6.93;;;;;;;;;;6200396;28;20445;-76
2021/12/01 15:35:08;;;;;;;15.60;7.97;;;;;;;;;;6226558;28;20207;-76
2021/12/01 15:38:10;;;;;;;9.32;7.20;;;;;;;;;;6203210;28;20445;-74
2021/12/01 15:41:11;;;;;;;12.75;7.60;;;;;;;;;;6200379;28;20057;-73
2021/12/01 15:44:13;;;;;;;11.35;7.15;;;;;;;;;;6213935;28;20065;-74
2021/12/01 15:47:15;;;;;;;12.63;7.28;;;;;;;;;;6213420;28;20060;-75
2021/12/01 15:50:23;;;;;;;9.95;7.10;;;;;;;;;;6229514;28;20275;-76
2021/12/01 15:53:24;;;;;;;12.73;7.53;;;;;;;;;;6232182;28;20547;-73
2021/12/01 15:56:25;;;;;;;11.57;7.38;;;;;;;;;;6229036;28;20199;-73
2021/12/01 15:59:27;;;;;;;11.15;7.75;;;;;;;;;;6235139;28;20049;-74
2021/12/01 16:02:28;;;;;;;13.23;7.43;;;;;;;;;;6225415;28;20130;-73
2021/12/01 16:05:31;;;;;;;11.65;7.53;;;;;;;;;;6219624;28;20422;-77
2021/12/01 16:08:32;;;;;;;13.43;7.90;;;;;;;;;;6231400;28;20074;-72
2021/12/01 16:11:34;;;;;;;11.88;8.10;;;;;;;;;;6221010;28;20125;-73
2021/12/01 16:14:35;;;;;;;12.50;8.52;;;;;;;;;;6244268;28;20128;-73
2021/12/01 16:17:38;;;;;;;12.93;8.02;;;;;;;;;;6203371;28;20128;-73
2021/12/01 16:20:41;;;;;;;12.68;7.43;;;;;;;;;;6214483;28;20509;-72
2021/12/01 16:23:45;;;;;;;13.60;7.60;;;;;;;;;;6212112;28;20054;-72
2021/12/01 16:26:49;;;;;;;10.38;7.68;;;;;;;;;;6208712;28;20062;-74
2021/12/01 16:29:51;;;;;;;12.57;8.00;;;;;;;;;;6224222;28;20048;-74
2021/12/01 16:32:53;;;;;;;14.02;7.47;;;;;;;;;;6212689;28;20453;-73
2021/12/01 16:35:56;;;;;;;12.63;7.03;;;;;;;;;;6231407;28;20101;-74
2021/12/01 16:38:58;;;;;;;15.30;7.38;;;;;;;;;;6241831;28;20054;-74
2021/12/01 16:41:59;;;;;;;12.55;7.10;;;;;;;;;;6234142;28;20045;-74
2021/12/01 16:45:01;;;;;;;12.00;8.30;;;;;;;;;;6246516;28;20109;-73
2021/12/01 16:48:03;;;;;;;11.32;7.65;;;;;;;;;;6229832;28;20129;-74
2021/12/01 16:51:06;;;;;;;10.85;7.53;;;;;;;;;;6228653;28;20050;-73
2021/12/01 16:54:08;;;;;;;16.73;8.40;;;;;;;;;;6238855;28;20053;-74
2021/12/01 16:57:09;;;;;;;10.95;7.75;;;;;;;;;;6239243;28;21116;-73
2021/12/01 17:00:12;;;;;;;11.80;8.10;;;;;;;;;;6242058;28;20470;-78
2021/12/01 17:03:21;;;;;;;12.27;8.25;;;;;;;;;;6230119;28;20049;-74
2021/12/01 17:06:30;;;;;;;11.93;9.10;;;;;;;;;;6242579;28;20052;-74
2021/12/01 17:09:31;;;;;;;12.10;8.40;;;;;;;;;;6243616;28;20669;-72
2021/12/01 17:12:33;;;;;;;10.48;8.30;;;;;;;;;;6242784;28;20129;-75
2021/12/01 17:15:34;;;;;;;13.90;8.20;;;;;;;;;;6244652;28;20045;-76
2021/12/01 17:18:40;;;;;;;13.05;8.68;;;;;;;;;;6241847;28;20060;-75
2021/12/01 17:21:43;;;;;;;14.05;8.15;;;;;;;;;;6241451;28;20128;-75
2021/12/01 17:24:44;;;;;;;14.90;8.88;;;;;;;;;;6254509;28;20049;-75
2021/12/01 17:27:46;;;;;;;13.65;8.75;;;;;;;;;;6231317;28;20124;-75
2021/12/01 17:30:51;;;;;;;11.48;8.55;;;;;;;;;;6234555;28;20038;-74
2021/12/01 17:33:52;;;;;;;15.07;8.63;;;;;;;;;;6238058;28;20053;-76
2021/12/01 17:36:55;;;;;;;13.98;8.10;;;;;;;;;;6249008;28;20070;-77
2021/12/01 17:39:57;;;;;;;13.15;8.43;;;;;;;;;;6253666;28;20104;-77
2021/12/01 17:42:58;;;;;;;13.20;8.52;;;;;;;;;;6239451;28;20509;-82
2021/12/01 17:46:00;;;;;;;13.45;7.90;;;;;;;;;;6242988;28;20147;-77
2021/12/01 17:49:02;;;;;;;14.23;8.32;;;;;;;;;;6247612;28;20053;-75
2021/12/01 17:52:05;;;;;;;15.55;8.40;;;;;;;;;;6243093;28;20141;-82
2021/12/01 17:55:07;;;;;;;15.17;8.30;;;;;;;;;;6247483;28;20618;-84
2021/12/01 17:58:09;;;;;;;12.55;8.38;;;;;;;;;;6258471;28;20475;-76
2021/12/01 18:01:10;;;;;;;11.82;8.40;;;;;;;;;;6248902;28;20106;-74
2021/12/01 18:04:13;;;;;;;12.85;8.68;;;;;;;;;;6253574;28;20458;-75
2021/12/01 18:07:16;;;;;;;12.57;8.27;;;;;;;;;;6245850;28;20033;-75
2021/12/01 18:10:18;;;;;;;11.77;8.10;;;;;;;;;;6244164;28;20057;-75
2021/12/01 18:13:19;;;;;;;13.50;8.50;;;;;;;;;;6249572;28;20465;-74
2021/12/01 18:16:21;;;;;;;12.52;8.10;;;;;;;;;;6245616;28;20514;-74